Flight Track Log - Related Links

Times and Time Zones

All times are in EDT time to prevent confusion due to time zone crossing. See the XOJ793 flight status page for this flight to view local times or setup timezone preferences in your user account.

Time Position Orientation Groundspeed Altitude Reporting Facility
EDT Latitude Longitude Course Direction KTS MPH feet Rate Location/Type
Thu 08:44:48 AM 40.8667 -74.0500 360° North 162 186 1,300  Level New York TRACON
Thu 08:45:48 AM 40.9167 -74.0500 360° North 197 227 2,100 421 Climbing New York TRACON
Thu 08:46:42 AM 40.9167 -74.1167 270° West 225 259 2,100 789 Level New York TRACON
Thu 08:47:42 AM 40.9167 -74.2000 270° West 228 262 3,600 2,102 Climbing New York TRACON
Thu 08:49:19 AM 40.9308 -74.3314 278° West 253 291 7,600 2,278 Climbing New York Center
Thu 08:50:20 AM 41.0106 -74.3711 339° North 284 327 9,600 1,561 Climbing New York Center
Thu 08:51:22 AM 41.0975 -74.3947 348° North 330 380 10,800 1,824 Climbing New York Center
Thu 08:52:25 AM 41.1958 -74.3825 North 333 383 13,400 2,112 Climbing New York Center
Thu 08:53:27 AM 41.2894 -74.3706 North 333 383 15,200 1,645 Climbing New York Center
Thu 08:54:29 AM 41.3922 -74.3747 358° North 347 399 16,800 1,463 Climbing New York Center
Thu 08:55:30 AM 41.4556 -74.4678 312° West 344 396 18,200 1,333 Climbing New York Center
Thu 08:56:35 AM 41.5031 -74.5772 300° West 352 405 19,600 1,344 Climbing New York Center
Thu 08:57:35 AM 41.5525 -74.6942 299° West 359 413 21,000 1,377 Climbing New York Center
Thu 08:58:37 AM 41.6044 -74.8144 300° West 370 426 22,400 1,488 Climbing New York Center
Thu 08:59:40 AM 41.6667 -74.9633 299° West 386 444 24,100 1,488 Climbing New York Center
Thu 09:00:42 AM 41.7206 -75.0892 300° West 390 449 25,500 1,333 Climbing New York Center
Thu 09:01:46 AM 41.7750 -75.2175 300° West 395 455 26,900 1,296 Climbing New York Center
Thu 09:02:47 AM 41.8303 -75.3472 300° West 401 461 28,200 1,296 Climbing New York Center
Thu 09:03:51 AM 41.8850 -75.4797 299° West 404 465 29,600 1,488 Climbing New York Center
Thu 09:04:52 AM 41.9514 -75.6381 299° West 407 468 31,300 1,161 Climbing New York Center
Thu 09:05:55 AM 42.0081 -75.7742 299° West 420 483 32,000 432 Climbing New York Center
Thu 09:06:57 AM 42.0728 -75.9292 299° West 446 513 32,200 634 Climbing New York Center
Thu 09:07:58 AM 42.1342 -76.0811 299° West 461 531 33,300 1,317 Climbing New York Center
Thu 09:09:00 AM 42.1886 -76.2300 296° West 451 519 34,900 1,596 Climbing New York Center
Thu 09:09:47 AM 42.2261 -76.3519 293° West 439 505 36,200 1,431 Climbing Cleveland Center
Thu 09:10:49 AM 42.2731 -76.4967 294° West 433 498 37,500 1,016 Climbing Cleveland Center
Thu 09:11:51 AM 42.3189 -76.6428 293° West 426 490 38,300 823 Climbing Cleveland Center
Thu 09:12:53 AM 42.3756 -76.8217 293° West 429 494 39,200 726 Climbing Cleveland Center
Thu 09:13:55 AM 42.4222 -76.9700 293° West 429 494 39,800 532 Climbing Cleveland Center
Thu 09:14:57 AM 42.4697 -77.1206 293° West 431 496 40,300 480 Climbing Cleveland Center
Thu 09:16:00 AM 42.5197 -77.2706 294° West 436 502 40,800 528 Climbing Cleveland Center
Thu 09:17:02 AM 42.5681 -77.4217 294° West 436 502 41,400 532 Climbing Cleveland Center
Thu 09:18:04 AM 42.6172 -77.5758 293° West 435 501 41,900 387 Climbing Cleveland Center
Thu 09:19:06 AM 42.6664 -77.7272 294° West 435 501 42,200 290 Climbing Cleveland Center
Thu 09:20:08 AM 42.7197 -77.8942 294° West 453 521 42,500 242 Climbing Cleveland Center
Thu 09:21:10 AM 42.7669 -78.0453 293° West 441 507 42,700 194 Climbing Cleveland Center
Thu 09:22:12 AM 42.8242 -78.2297 293° West 441 507 42,900 145 Climbing Cleveland Center
Thu 09:23:14 AM 42.8719 -78.3844 293° West 443 510 43,000 48 Climbing Cleveland Center
Thu 09:24:16 AM 42.9211 -78.5400 293° West 446 513 43,000  Level Cleveland Center
Thu 09:25:19 AM 42.9683 -78.6958 293° West 446 513 43,000  Level Cleveland Center
Thu 09:26:21 AM 43.0175 -78.8542 293° West 451 519 43,000  Level Cleveland Center
Thu 09:27:02 AM 43.0500 -78.9667 292° West 450 518 43,000  Level Toronto Center
Thu 09:28:02 AM 43.1000 -79.1333 292° West 450 518 43,000  Level Toronto Center
Thu 09:29:02 AM 43.1500 -79.2833 295° West 450 518 43,000  Level Toronto Center
Thu 09:30:02 AM 43.2000 -79.4500 292° West 460 529 43,000  Level Toronto Center
Thu 09:31:02 AM 43.2333 -79.6167 285° West 460 529 43,000  Level Toronto Center
Thu 09:32:02 AM 43.2833 -79.7667 295° West 460 529 43,000  Level Toronto Center
Thu 09:33:02 AM 43.3333 -79.9333 292° West 460 529 43,000  Level Toronto Center
Thu 09:34:02 AM 43.3833 -80.1000 292° West 460 529 43,000  Level Toronto Center
Thu 09:35:02 AM 43.4333 -80.2500 295° West 460 529 43,000  Level Toronto Center
Thu 09:36:02 AM 43.4833 -80.4167 293° West 460 529 43,000  Level Toronto Center
Thu 09:37:02 AM 43.5333 -80.5833 293° West 460 529 43,000  Level Toronto Center
Thu 09:38:02 AM 43.5833 -80.7667 291° West 450 518 43,000  Level Toronto Center
Thu 09:39:02 AM 43.6000 -80.9000 280° West 450 518 43,000  Level Toronto Center
Thu 09:40:02 AM 43.6500 -81.0833 291° West 450 518 43,000  Level Toronto Center
Thu 09:41:02 AM 43.7000 -81.2167 297° West 450 518 43,000  Level Toronto Center
Thu 09:42:02 AM 43.7500 -81.3833 293° West 450 518 43,000  Level Toronto Center
Thu 09:43:02 AM 43.8000 -81.5500 293° West 450 518 43,000  Level Toronto Center
Thu 09:44:02 AM 43.8333 -81.7167 286° West 450 518 43,000  Level Toronto Center
Thu 09:45:02 AM 43.8833 -81.9000 291° West 460 529 43,000  Level Toronto Center
Thu 09:46:02 AM 43.9167 -82.0333 289° West 460 529 43,000  Level Toronto Center
Thu 09:47:02 AM 43.9667 -82.2333 289° West 450 518 43,000  Level Toronto Center
Thu 09:48:02 AM 44.0167 -82.3667 298° West 450 518 43,000  Level Toronto Center
Thu 09:49:02 AM 44.0667 -82.5500 291° West 450 518 43,000  Level Toronto Center
Thu 09:50:02 AM 44.0833 -82.7000 279° West 450 518 43,000  Level Toronto Center
Thu 09:51:02 AM 44.1333 -82.8667 293° West 450 518 43,000  Level Toronto Center
Thu 09:52:02 AM 44.1833 -83.0333 293° West 450 518 43,000  Level Toronto Center
Thu 09:53:02 AM 44.2333 -83.2000 293° West 450 518 43,000  Level Toronto Center
Thu 09:54:02 AM 44.2667 -83.3667 286° West 450 518 43,000  Level Toronto Center
Thu 09:54:32 AM 44.3022 -83.4506 301° West 448 516 43,000  Level Minneapolis Center
Thu 09:55:33 AM 44.3425 -83.6161 289° West 448 516 43,000  Level Minneapolis Center
Thu 09:56:35 AM 44.3844 -83.7806 290° West 449 517 43,000  Level Minneapolis Center
Thu 09:57:37 AM 44.4261 -83.9492 289° West 455 524 43,000  Level Minneapolis Center
Thu 09:58:39 AM 44.4681 -84.1142 290° West 455 524 43,000  Level Minneapolis Center
Thu 09:59:41 AM 44.5100 -84.2831 289° West 456 525 43,000  Level Minneapolis Center
Thu 10:00:42 AM 44.5506 -84.4497 289° West 456 525 43,000  Level Minneapolis Center
Thu 10:01:44 AM 44.5983 -84.6511 288° West 456 525 43,000  Level Minneapolis Center
Thu 10:02:46 AM 44.6386 -84.8189 289° West 456 525 43,000  Level Minneapolis Center
Thu 10:03:48 AM 44.6792 -84.9881 289° West 456 525 43,000  Level Minneapolis Center
Thu 10:04:50 AM 44.7192 -85.1564 289° West 456 525 43,000  Level Minneapolis Center
Thu 10:05:51 AM 44.7586 -85.3250 288° West 456 525 43,000  Level Minneapolis Center
Thu 10:06:53 AM 44.7981 -85.4931 288° West 456 525 43,000  Level Minneapolis Center
Thu 10:07:55 AM 44.8397 -85.6772 288° West 456 525 43,000  Level Minneapolis Center
Thu 10:08:57 AM 44.8781 -85.8478 288° West 456 525 43,000  Level Minneapolis Center
Thu 10:09:59 AM 44.9164 -86.0169 288° West 456 525 43,000  Level Minneapolis Center
Thu 10:11:00 AM 44.9633 -86.2214 288° West 456 525 43,000  Level Minneapolis Center
Thu 10:12:02 AM 45.0000 -86.3900 287° West 456 525 43,000  Level Minneapolis Center
Thu 10:13:04 AM 45.0389 -86.5617 288° West 456 525 43,000  Level Minneapolis Center
Thu 10:14:06 AM 45.0756 -86.7308 287° West 456 525 43,000  Level Minneapolis Center
Thu 10:15:08 AM 45.1139 -86.9094 287° West 457 526 43,000  Level Minneapolis Center
Thu 10:16:09 AM 45.1506 -87.0775 287° West 452 520 43,000  Level Minneapolis Center
Thu 10:17:11 AM 45.1867 -87.2478 287° West 452 520 43,000  Level Minneapolis Center
Thu 10:18:13 AM 45.2231 -87.4164 287° West 451 519 43,000  Level Minneapolis Center
Thu 10:19:15 AM 45.2661 -87.6200 287° West 451 519 43,000  Level Minneapolis Center
Thu 10:21:19 AM 45.3353 -87.9564 286° West 446 513 43,000  Level Minneapolis Center
Thu 10:22:21 AM 45.3706 -88.1278 286° West 447 514 43,000  Level Minneapolis Center
Thu 10:23:23 AM 45.4097 -88.3200 286° West 447 514 43,000  Level Minneapolis Center
Thu 10:24:25 AM 45.4442 -88.4922 286° West 447 514 43,000  Level Minneapolis Center
Thu 10:25:27 AM 45.4783 -88.6642 286° West 448 516 43,000  Level Minneapolis Center
Thu 10:26:29 AM 45.5119 -88.8344 286° West 448 516 43,000  Level Minneapolis Center
Thu 10:27:31 AM 45.5467 -89.0069 286° West 448 516 43,000  Level Minneapolis Center
Thu 10:28:33 AM 45.5789 -89.1819 285° West 449 517 43,000  Level Minneapolis Center
Thu 10:29:35 AM 45.6128 -89.3550 286° West 453 521 43,000  Level Minneapolis Center
Thu 10:30:37 AM 45.6533 -89.5603 286° West 453 521 43,000  Level Minneapolis Center
Thu 10:31:39 AM 45.6869 -89.7444 285° West 454 522 43,000  Level Minneapolis Center
Thu 10:32:41 AM 45.7192 -89.9203 285° West 454 522 43,000  Level Minneapolis Center
Thu 10:33:44 AM 45.7517 -90.0942 285° West 454 522 43,000  Level Minneapolis Center
Thu 10:34:46 AM 45.7833 -90.2669 285° West 451 519 43,000  Level Minneapolis Center
Thu 10:35:48 AM 45.8156 -90.4425 285° West 451 519 43,000  Level Minneapolis Center
Thu 10:36:50 AM 45.8472 -90.6167 285° West 451 519 43,000  Level Minneapolis Center
Thu 10:37:52 AM 45.8794 -90.7922 285° West 452 520 43,000  Level Minneapolis Center
Thu 10:38:54 AM 45.9156 -91.0039 284° West 453 521 43,000  Level Minneapolis Center
Thu 10:39:56 AM 45.9475 -91.1817 285° West 455 524 43,000  Level Minneapolis Center
Thu 10:40:58 AM 45.9772 -91.3589 284° West 456 525 43,000  Level Minneapolis Center
Thu 10:44:04 AM 46.0719 -91.9122 284° West 455 524 43,000  Level Minneapolis Center
Thu 10:45:06 AM 46.1017 -92.0881 284° West 455 524 43,000  Level Minneapolis Center
Thu 10:46:08 AM 46.1297 -92.2642 283° West 455 524 43,000  Level Minneapolis Center
Thu 10:47:10 AM 46.1589 -92.4400 284° West 455 524 43,000  Level Minneapolis Center
Thu 10:48:13 AM 46.1869 -92.6172 283° West 452 520 43,000  Level Minneapolis Center
Thu 10:49:00 AM 46.1888 -92.7057 284° West  Level FlightAware Approximate
Thu 10:49:15 AM 46.2183 -92.8239 282° West 454 522 43,000  Level Minneapolis Center
Thu 10:50:17 AM 46.2472 -93.0025 283° West 454 522 43,000  Level Minneapolis Center
Thu 10:51:19 AM 46.2761 -93.1808 283° West 454 522 43,000  Level Minneapolis Center
Thu 10:52:21 AM 46.3031 -93.3611 282° West 455 524 43,000  Level Minneapolis Center
Thu 10:53:23 AM 46.3303 -93.5397 283° West 455 524 43,000  Level Minneapolis Center
Thu 10:54:25 AM 46.3625 -93.7539 282° West 455 524 43,000  Level Minneapolis Center
Thu 10:55:27 AM 46.3886 -93.9314 282° West 455 524 43,000  Level Minneapolis Center
Thu 10:56:29 AM 46.4150 -94.1100 282° West 455 524 43,000  Level Minneapolis Center
Thu 10:57:31 AM 46.4411 -94.2914 282° West 454 522 43,000  Level Minneapolis Center
Thu 10:58:33 AM 46.4669 -94.4736 282° West 458 527 43,000  Level Minneapolis Center
Thu 10:59:35 AM 46.4933 -94.6578 282° West 461 531 43,000  Level Minneapolis Center
Thu 11:00:39 AM 46.5244 -94.8808 282° West 469 540 43,000  Level Minneapolis Center
Thu 11:01:41 AM 46.5500 -95.0661 281° West 468 539 43,000  Level Minneapolis Center
Thu 11:02:43 AM 46.5747 -95.2503 281° West 468 539 43,000  Level Minneapolis Center
Thu 11:03:45 AM 46.6031 -95.4558 281° West 468 539 43,000  Level Minneapolis Center
Thu 11:04:47 AM 46.6283 -95.6453 281° West 473 544 43,000  Level Minneapolis Center
Thu 11:05:49 AM 46.6525 -95.8333 281° West 473 544 43,000  Level Minneapolis Center
Thu 11:06:51 AM 46.6758 -96.0214 280° West 473 544 43,000  Level Minneapolis Center
Thu 11:07:53 AM 46.6992 -96.2103 280° West 473 544 43,000  Level Minneapolis Center
Thu 11:08:55 AM 46.7278 -96.4356 281° West 473 544 43,000  Level Minneapolis Center
Thu 11:09:58 AM 46.7522 -96.6239 281° West 473 544 43,000  Level Minneapolis Center
Thu 11:11:00 AM 46.7744 -96.8164 280° West 474 545 43,000  Level Minneapolis Center
Thu 11:12:02 AM 46.7972 -97.0053 280° West 475 547 43,000  Level Minneapolis Center
Thu 11:13:04 AM 46.8192 -97.1944 280° West 475 547 43,000  Level Minneapolis Center
Thu 11:14:06 AM 46.8419 -97.3858 280° West 475 547 43,000  Level Minneapolis Center
Thu 11:15:08 AM 46.8633 -97.5767 279° West 475 547 43,000  Level Minneapolis Center
Thu 11:16:10 AM 46.8894 -97.8083 279° West 477 549 43,000  Level Minneapolis Center
Thu 11:17:12 AM 46.9114 -98.0019 279° West 478 550 43,000  Level Minneapolis Center
Thu 11:18:14 AM 46.9322 -98.1969 279° West 479 551 43,000  Level Minneapolis Center
Thu 11:19:16 AM 46.9528 -98.3914 279° West 480 552 43,000  Level Minneapolis Center
Thu 11:20:18 AM 46.9733 -98.5850 279° West 480 552 43,000  Level Minneapolis Center
Thu 11:21:21 AM 46.9939 -98.7803 279° West 480 552 43,000  Level Minneapolis Center
Thu 11:22:23 AM 47.0131 -98.9739 278° West 480 552 43,000 -48 Level Minneapolis Center
Thu 11:23:25 AM 47.0356 -99.2064 278° West 481 554 42,900  Descending Minneapolis Center
Thu 11:24:27 AM 47.0544 -99.3947 278° West 475 547 43,000 48 Climbing Minneapolis Center
Thu 11:25:29 AM 47.0725 -99.5797 278° West 465 535 43,000  Level Minneapolis Center
Thu 11:26:31 AM 47.1056 -99.7575 285° West 458 527 43,000 194 Level Minneapolis Center
Thu 11:27:33 AM 47.1625 -99.9206 297° West 452 520 43,400 435 Climbing Minneapolis Center
Thu 11:28:35 AM 47.2183 -100.0842 297° West 451 519 43,900 484 Climbing Minneapolis Center
Thu 11:29:37 AM 47.2844 -100.2828 296° West 451 519 44,400 484 Climbing Minneapolis Center
Thu 11:30:39 AM 47.3275 -100.4561 290° West 451 519 44,900 290 Climbing Minneapolis Center
Thu 11:31:41 AM 47.3642 -100.6386 287° West 462 532 45,000 48 Climbing Minneapolis Center
Thu 11:32:44 AM 47.3850 -100.8297 279° West 469 540 45,000  Level Minneapolis Center
Thu 11:33:46 AM 47.3964 -101.0206 275° West 470 541 45,000  Level Minneapolis Center
Thu 11:34:48 AM 47.4097 -101.2536 275° West 473 544 45,000  Level Minneapolis Center
Thu 11:35:50 AM 47.4225 -101.4469 276° West 474 545 45,000  Level Minneapolis Center
Thu 11:36:52 AM 47.4347 -101.6392 275° West 474 545 45,000  Level Minneapolis Center
Thu 11:37:54 AM 47.4433 -101.8300 274° West 473 544 45,000  Level Minneapolis Center
Thu 11:38:56 AM 47.4539 -102.0222 275° West 473 544 45,000  Level Minneapolis Center
Thu 11:39:58 AM 47.4656 -102.2156 275° West 473 544 45,000  Level Minneapolis Center
Thu 11:41:00 AM 47.4808 -102.4450 276° West 472 543 45,000  Level Minneapolis Center
Thu 11:41:43 AM 47.4853 -102.5597 273° West 472 543 45,000 -57 Level Salt Lake Center
Thu 11:42:45 AM 47.4961 -102.7525 275° West 472 543 44,900  Descending Salt Lake Center
Thu 11:43:47 AM 47.5064 -102.9447 275° West 472 543 45,000 48 Climbing Salt Lake Center
Thu 11:44:49 AM 47.5164 -103.1722 274° West 468 539 45,000  Level Salt Lake Center
Thu 11:45:51 AM 47.5250 -103.3606 274° West 464 534 45,000  Level Salt Lake Center
Thu 11:46:53 AM 47.5331 -103.5500 274° West 464 534 45,000  Level Salt Lake Center
Thu 11:47:55 AM 47.5403 -103.7436 273° West 463 533 45,000  Level Salt Lake Center
Thu 11:48:57 AM 47.5478 -103.9425 273° West 466 536 45,000 -48 Level Salt Lake Center
Thu 11:49:59 AM 47.5581 -104.1353 275° West 469 540 44,900  Descending Salt Lake Center
Thu 11:51:01 AM 47.5667 -104.3222 274° West 464 534 45,000 48 Climbing Salt Lake Center
Thu 11:52:04 AM 47.5736 -104.5106 273° West 462 532 45,000  Level Salt Lake Center
Thu 11:53:06 AM 47.5817 -104.7356 273° West 461 531 45,000  Level Salt Lake Center
Thu 11:54:08 AM 47.5878 -104.9228 273° West 461 531 45,000  Level Salt Lake Center
Thu 11:55:10 AM 47.5947 -105.1089 273° West 459 528 45,000  Level Salt Lake Center
Thu 11:56:12 AM 47.6033 -105.2958 274° West 458 527 45,000  Level Salt Lake Center
Thu 11:57:14 AM 47.6089 -105.4831 273° West 458 527 45,000  Level Salt Lake Center
Thu 11:58:16 AM 47.6153 -105.6731 273° West 459 528 45,000  Level Salt Lake Center
Thu 11:59:18 AM 47.6208 -105.8992 272° West 459 528 45,000  Level Salt Lake Center
Thu 12:00:20 PM 47.6258 -106.0872 272° West 459 528 45,000  Level Salt Lake Center
Thu 12:01:22 PM 47.6303 -106.2725 272° West 457 526 45,000  Level Salt Lake Center
Thu 12:02:24 PM 47.6331 -106.4539 271° West 446 513 45,000  Level Salt Lake Center
Thu 12:03:26 PM 47.6378 -106.6353 272° West 445 512 45,000  Level Salt Lake Center
Thu 12:04:28 PM 47.6397 -106.8175 271° West 444 511 45,000  Level Salt Lake Center
Thu 12:05:30 PM 47.6442 -107.0361 272° West 444 511 45,000  Level Salt Lake Center
Thu 12:06:33 PM 47.6478 -107.2217 272° West 445 512 45,000  Level Salt Lake Center
Thu 12:07:35 PM 47.6489 -107.4033 271° West 445 512 45,000  Level Salt Lake Center
Thu 12:08:37 PM 47.6522 -107.5989 272° West 447 514 45,000  Level Salt Lake Center
Thu 12:09:39 PM 47.6533 -107.7853 271° West 448 516 45,000  Level Salt Lake Center
Thu 12:10:41 PM 47.6544 -107.9722 271° West 452 520 45,000  Level Salt Lake Center
Thu 12:11:43 PM 47.6558 -108.1592 271° West 452 520 45,000  Level Salt Lake Center
Thu 12:12:45 PM 47.6569 -108.3825 271° West 452 520 45,000  Level Salt Lake Center
Thu 12:13:47 PM 47.6575 -108.5683 270° West 452 520 45,000  Level Salt Lake Center
Thu 12:14:49 PM 47.6586 -108.7550 271° West 452 520 45,000  Level Salt Lake Center
Thu 12:15:51 PM 47.6572 -108.9425 269° West 453 521 45,000  Level Salt Lake Center
Thu 12:16:53 PM 47.6586 -109.1292 271° West 453 521 45,000  Level Salt Lake Center
Thu 12:17:55 PM 47.6567 -109.3167 269° West 454 522 45,000  Level Salt Lake Center
Thu 12:18:57 PM 47.6556 -109.5436 270° West 459 528 45,000  Level Salt Lake Center
Thu 12:19:59 PM 47.6544 -109.7314 270° West 459 528 45,000  Level Salt Lake Center
Thu 12:21:02 PM 47.6519 -109.9214 269° West 459 528 45,000  Level Salt Lake Center
Thu 12:22:04 PM 47.6511 -110.1119 270° West 460 529 45,000  Level Salt Lake Center
Thu 12:23:06 PM 47.6475 -110.3017 268° West 460 529 45,000  Level Salt Lake Center
Thu 12:24:08 PM 47.6453 -110.4925 269° West 460 529 45,000  Level Salt Lake Center
Thu 12:25:10 PM 47.6422 -110.7228 269° West 463 533 45,000  Level Salt Lake Center
Thu 12:26:12 PM 47.6392 -110.9161 269° West 467 537 45,000  Level Salt Lake Center
Thu 12:27:14 PM 47.6364 -111.1114 269° West 472 543 45,000  Level Salt Lake Center
Thu 12:28:16 PM 47.6311 -111.3203 268° West 474 545 45,000  Level Salt Lake Center
Thu 12:29:18 PM 47.6247 -111.5283 267° West 477 549 45,000  Level Salt Lake Center
Thu 12:30:20 PM 47.6206 -111.7231 268° West 477 549 45,000  Level Salt Lake Center
Thu 12:31:22 PM 47.6153 -111.9189 268° West 477 549 45,000  Level Salt Lake Center
Thu 12:32:24 PM 47.6097 -112.1144 268° West 477 549 45,000  Level Salt Lake Center
Thu 12:33:26 PM 47.6031 -112.3503 268° West 477 549 45,000  Level Salt Lake Center
Thu 12:34:29 PM 47.5958 -112.5461 267° West 477 549 45,000  Level Salt Lake Center
Thu 12:35:31 PM 47.5906 -112.7419 268° West 477 549 45,000  Level Salt Lake Center
Thu 12:36:33 PM 47.5831 -112.9364 267° West 477 549 45,000  Level Salt Lake Center
Thu 12:37:35 PM 47.5781 -113.1194 268° West 470 541 45,000  Level Salt Lake Center
Thu 12:38:37 PM 47.5692 -113.3492 267° West 469 540 45,000  Level Salt Lake Center
Thu 12:39:39 PM 47.5608 -113.5383 266° West 465 535 45,000  Level Salt Lake Center
Thu 12:40:41 PM 47.5533 -113.7311 267° West 464 534 45,000  Level Salt Lake Center
Thu 12:41:43 PM 47.5453 -113.9219 266° West 466 536 45,000  Level Salt Lake Center
Thu 12:42:45 PM 47.5369 -114.1114 266° West 463 533 45,000  Level Salt Lake Center
Thu 12:43:47 PM 47.5278 -114.3014 266° West 460 529 45,000 -48 Level Salt Lake Center
Thu 12:44:49 PM 47.5186 -114.4914 266° West 461 531 44,900  Descending Salt Lake Center
Thu 12:45:51 PM 47.5125 -114.7153 268° West 455 524 45,000 48 Climbing Salt Lake Center
Thu 12:46:54 PM 47.5275 -114.9061 277° West 462 532 45,000  Level Salt Lake Center
Thu 12:47:56 PM 47.5428 -115.0950 277° West 462 532 45,000  Level Salt Lake Center
Thu 12:48:58 PM 47.5581 -115.2844 277° West 462 532 45,000  Level Salt Lake Center
Thu 12:50:00 PM 47.5722 -115.4742 276° West 463 533 45,000  Level Salt Lake Center
Thu 12:51:02 PM 47.5861 -115.6644 276° West 463 533 45,000  Level Salt Lake Center
Thu 12:52:04 PM 47.6000 -115.8556 276° West 465 535 45,000  Level Salt Lake Center
Thu 12:53:06 PM 47.6158 -116.0831 276° West 465 535 45,000  Level Salt Lake Center
Thu 12:54:16 PM 47.6275 -116.2706 275° West 463 533 45,000 -46 Level Seattle Center
Thu 12:55:17 PM 47.6431 -116.4997 276° West 463 533 44,900  Descending Seattle Center
Thu 12:56:19 PM 47.6553 -116.6897 276° West 464 534 45,000 49 Climbing Seattle Center
Thu 12:57:20 PM 47.6686 -116.8794 276° West 465 535 45,000  Level Seattle Center
Thu 12:58:21 PM 47.6814 -117.0736 276° West 465 535 45,000  Level Seattle Center
Thu 12:59:23 PM 47.6914 -117.2539 275° West 473 544 45,000  Level Seattle Center
Thu 01:00:24 PM 47.7042 -117.4803 275° West 469 540 45,000  Level Seattle Center
Thu 01:01:25 PM 47.7142 -117.6711 275° West 466 536 45,000  Level Seattle Center
Thu 01:02:27 PM 47.7244 -117.8619 275° West 467 537 45,000  Level Seattle Center
Thu 01:03:28 PM 47.7356 -118.0550 275° West 468 539 45,000  Level Seattle Center
Thu 01:04:29 PM 47.7439 -118.2478 274° West 469 540 45,000  Level Seattle Center
Thu 01:05:31 PM 47.7531 -118.4400 274° West 469 540 45,000  Level Seattle Center
Thu 01:06:32 PM 47.7622 -118.6308 274° West 468 539 45,000  Level Seattle Center
Thu 01:07:34 PM 47.7708 -118.8233 274° West 468 539 45,000 -829 Level Seattle Center
Thu 01:08:35 PM 47.7817 -119.0536 274° West 468 539 43,300 -1,967 Descending Seattle Center
Thu 01:09:36 PM 47.7903 -119.2508 274° West 480 552 41,000 -2,195 Descending Seattle Center
Thu 01:10:38 PM 47.7967 -119.4436 273° West 474 545 38,800 -2,000 Descending Seattle Center
Thu 01:11:39 PM 47.8053 -119.6381 274° West 474 545 36,900 -2,146 Descending Seattle Center
Thu 01:12:41 PM 47.8117 -119.8339 273° West 478 550 34,400 -2,341 Descending Seattle Center
Thu 01:13:42 PM 47.8183 -120.0178 273° West 453 521 32,100 -2,164 Descending Seattle Center
Thu 01:14:43 PM 47.8253 -120.1883 274° West 420 483 30,000 -2,098 Descending Seattle Center
Thu 01:15:45 PM 47.8294 -120.3583 272° West 413 475 27,800 -2,146 Descending Seattle Center
Thu 01:16:46 PM 47.8392 -120.5319 275° West 422 486 25,600 -1,902 Descending Seattle Center
Thu 01:17:48 PM 47.8444 -120.7403 272° West 421 484 23,900 -1,707 Descending Seattle Center
Thu 01:18:49 PM 47.8475 -120.8814 272° West 394 453 22,100 -1,918 Descending Seattle Center
Thu 01:19:50 PM 47.8528 -121.0400 273° West 389 448 20,000 -2,293 Descending Seattle Center
Thu 01:20:52 PM 47.8544 -121.2300 271° West 385 443 17,400 -2,458 Descending Seattle Center
Thu 01:21:13 PM 47.8594 -121.2761 279° West 370 426 16,600 -1,869 Descending Seattle Center
Thu 01:21:53 PM 47.8647 -121.3694 275° West 340 391 15,500 -1,701 Descending Seattle Center
Thu 01:22:20 PM 47.8683 -121.4303 275° West 324 373 14,700 -1,672 Descending Seattle Center
Thu 01:22:54 PM 47.8725 -121.5011 275° West 324 373 13,800 -1,808 Descending Seattle Center
Thu 01:23:33 PM 47.8786 -121.5903 276° West 311 358 12,500 -1,645 Descending Seattle Center
Thu 01:23:56 PM 47.8814 -121.6256 277° West 304 350 12,100 -1,636 Descending Seattle Center
Thu 01:24:28 PM 47.8792 -121.6958 267° West 268 308 11,000 -1,672 Descending Seattle Center
Thu 01:24:57 PM 47.8644 -121.7325 239° Southwest 281 323 10,400 -1,556 Descending Seattle Center
Thu 01:25:22 PM 47.8347 -121.7742 223° Southwest 287 330 9,600 -1,869 Descending Seattle Center
Thu 01:25:58 PM 47.8017 -121.8175 221° Southwest 286 329 8,500 -1,964 Descending Seattle Center
Thu 01:26:17 PM 47.7814 -121.8442 221° Southwest 284 327 7,800 -1,742 Descending Seattle Center
Thu 01:27:00 PM 47.7492 -121.9072 233° Southwest 272 313 6,700 -1,522 Descending Seattle Center
Thu 01:27:24 PM 47.7481 -121.9486 268° West 259 298 6,100 -1,475 Descending Seattle Center
Thu 01:28:01 PM 47.7483 -122.0119 270° West 255 293 5,200 -1,475 Descending Seattle Center
Thu 01:28:25 PM 47.7483 -122.0542 270° West 250 288 4,600 -1,475 Descending Seattle Center
Thu 01:29:02 PM 47.7472 -122.1164 269° West 252 290 3,700 -1,433 Descending Seattle Center
Thu 01:29:32 PM 47.7478 -122.1667 271° West 259 298 3,000 -1,161 Descending Seattle Center
Thu 01:30:04 PM 47.7494 -122.2239 273° West 259 298 2,500 -716 Descending Seattle Center
Thu 01:30:39 PM 47.7517 -122.2867 273° West 253 291 2,200 -295 Descending Seattle Center
Thu 01:31:05 PM 47.7511 -122.3306 269° West 246 283 2,200  Level Seattle Center
Thu 01:31:46 PM 47.7436 -122.3964 260° West 220 253 2,200  Level Seattle Center
Thu 01:32:06 PM 47.7347 -122.4156 235° Southwest 220 253 2,200  Level Seattle Center
Thu 01:32:34 PM 47.7081 -122.4228 190° South 215 247 2,200  Level Seattle Center
Thu 01:33:08 PM 47.6747 -122.4197 176° South 212 244 2,200  Level Seattle Center
Thu 01:33:29 PM 47.6531 -122.4069 158° South 227 261 2,200 -393 Level Seattle Center
Thu 01:34:09 PM 47.6164 -122.3761 150° Southeast 214 246 1,800 -689 Descending Seattle Center
Thu 01:34:30 PM 47.6019 -122.3628 148° Southeast 199 229 1,500 -885 Descending Seattle Center
Thu 01:35:10 PM 47.5758 -122.3419 152° Southeast 159 183 900 -896 Descending Seattle Center
Thu 01:35:37 PM 47.5628 -122.3317 152° Southeast 121 139 500 -677 Descending Seattle Center
Thu 01:36:12 PM 47.5486 -122.3186 148° Southeast 124 143 200 -514 Descending Seattle Center

Login

Don't have an account? Register now (free) for customized features, flight alerts, and more!